sensor_id;sensor_type;location;lat;lon;timestamp;P1;durP1;ratioP1;P2;durP2;ratioP2
75851;SDS011;64500;52.632;20.656;2022-12-11T00:00:25;36.10;;;18.20;;
75851;SDS011;64500;52.632;20.656;2022-12-11T00:03:12;32.20;;;17.90;;
75851;SDS011;64500;52.632;20.656;2022-12-11T00:05:42;31.00;;;16.90;;
75851;SDS011;64500;52.632;20.656;2022-12-11T00:08:10;32.60;;;17.20;;
75851;SDS011;64500;52.632;20.656;2022-12-11T00:10:38;33.20;;;18.30;;
75851;SDS011;64500;52.632;20.656;2022-12-11T00:13:04;33.40;;;18.90;;
75851;SDS011;64500;52.632;20.656;2022-12-11T00:15:31;33.20;;;18.30;;
75851;SDS011;64500;52.632;20.656;2022-12-11T00:17:58;32.80;;;18.10;;
75851;SDS011;64500;52.632;20.656;2022-12-11T00:20:25;31.60;;;18.00;;
75851;SDS011;64500;52.632;20.656;2022-12-11T00:22:52;27.90;;;16.80;;
75851;SDS011;64500;52.632;20.656;2022-12-11T00:25:19;32.20;;;18.30;;
75851;SDS011;64500;52.632;20.656;2022-12-11T00:27:46;33.40;;;17.80;;
75851;SDS011;64500;52.632;20.656;2022-12-11T00:30:13;33.40;;;17.50;;
75851;SDS011;64500;52.632;20.656;2022-12-11T00:32:40;33.20;;;17.70;;
75851;SDS011;64500;52.632;20.656;2022-12-11T00:35:09;31.60;;;17.20;;
75851;SDS011;64500;52.632;20.656;2022-12-11T00:37:37;32.40;;;17.90;;
75851;SDS011;64500;52.632;20.656;2022-12-11T00:40:04;29.60;;;16.80;;
75851;SDS011;64500;52.632;20.656;2022-12-11T00:42:31;31.20;;;17.30;;
75851;SDS011;64500;52.632;20.656;2022-12-11T00:44:58;31.00;;;17.00;;
75851;SDS011;64500;52.632;20.656;2022-12-11T00:47:25;30.40;;;16.90;;
75851;SDS011;64500;52.632;20.656;2022-12-11T00:49:52;31.20;;;16.80;;
75851;SDS011;64500;52.632;20.656;2022-12-11T00:52:19;30.20;;;16.50;;
75851;SDS011;64500;52.632;20.656;2022-12-11T00:54:46;34.40;;;18.00;;
75851;SDS011;64500;52.632;20.656;2022-12-11T00:57:13;32.50;;;17.10;;
75851;SDS011;64500;52.632;20.656;2022-12-11T00:59:40;29.80;;;16.50;;
75851;SDS011;64500;52.632;20.656;2022-12-11T01:02:07;30.90;;;15.30;;
75851;SDS011;64500;52.632;20.656;2022-12-11T01:04:34;28.20;;;15.10;;
75851;SDS011;64500;52.632;20.656;2022-12-11T01:07:02;30.60;;;15.10;;
75851;SDS011;64500;52.632;20.656;2022-12-11T01:09:29;29.60;;;15.40;;
75851;SDS011;64500;52.632;20.656;2022-12-11T01:12:15;27.00;;;14.60;;
75851;SDS011;64500;52.632;20.656;2022-12-11T01:14:41;29.70;;;15.90;;
75851;SDS011;64500;52.632;20.656;2022-12-11T01:17:09;29.20;;;16.00;;
75851;SDS011;64500;52.632;20.656;2022-12-11T01:19:37;29.00;;;14.50;;
75851;SDS011;64500;52.632;20.656;2022-12-11T01:22:04;27.70;;;13.80;;
75851;SDS011;64500;52.632;20.656;2022-12-11T01:24:31;25.00;;;13.50;;
75851;SDS011;64500;52.632;20.656;2022-12-11T01:26:58;28.60;;;14.00;;
75851;SDS011;64500;52.632;20.656;2022-12-11T01:29:25;26.60;;;13.40;;
75851;SDS011;64500;52.632;20.656;2022-12-11T01:31:52;28.50;;;14.20;;
75851;SDS011;64500;52.632;20.656;2022-12-11T01:34:19;29.20;;;15.10;;
75851;SDS011;64500;52.632;20.656;2022-12-11T01:36:46;29.20;;;15.20;;
75851;SDS011;64500;52.632;20.656;2022-12-11T01:39:13;29.40;;;14.90;;
75851;SDS011;64500;52.632;20.656;2022-12-11T01:41:39;30.70;;;15.30;;
75851;SDS011;64500;52.632;20.656;2022-12-11T01:45:09;31.00;;;15.60;;
75851;SDS011;64500;52.632;20.656;2022-12-11T01:46:57;28.80;;;15.80;;
75851;SDS011;64500;52.632;20.656;2022-12-11T01:49:24;30.50;;;16.60;;
75851;SDS011;64500;52.632;20.656;2022-12-11T01:51:57;30.10;;;15.80;;
75851;SDS011;64500;52.632;20.656;2022-12-11T01:54:28;31.00;;;16.40;;
75851;SDS011;64500;52.632;20.656;2022-12-11T01:56:57;26.70;;;12.40;;
75851;SDS011;64500;52.632;20.656;2022-12-11T01:59:29;30.50;;;15.70;;
75851;SDS011;64500;52.632;20.656;2022-12-11T02:02:01;27.10;;;14.80;;
75851;SDS011;64500;52.632;20.656;2022-12-11T02:04:32;29.50;;;15.50;;
75851;SDS011;64500;52.632;20.656;2022-12-11T02:07:01;31.40;;;16.10;;
75851;SDS011;64500;52.632;20.656;2022-12-11T02:09:32;31.30;;;17.00;;
75851;SDS011;64500;52.632;20.656;2022-12-11T02:17:37;31.80;;;14.60;;
75851;SDS011;64500;52.632;20.656;2022-12-11T02:20:12;28.90;;;14.70;;
75851;SDS011;64500;52.632;20.656;2022-12-11T02:29:14;26.80;;;13.60;;
75851;SDS011;64500;52.632;20.656;2022-12-11T02:33:58;29.00;;;14.30;;
75851;SDS011;64500;52.632;20.656;2022-12-11T02:36:30;27.80;;;14.50;;
75851;SDS011;64500;52.632;20.656;2022-12-11T02:39:01;28.00;;;14.60;;
75851;SDS011;64500;52.632;20.656;2022-12-11T02:41:30;27.90;;;14.90;;
75851;SDS011;64500;52.632;20.656;2022-12-11T02:44:00;32.50;;;16.20;;
75851;SDS011;64500;52.632;20.656;2022-12-11T02:46:29;26.80;;;14.40;;
75851;SDS011;64500;52.632;20.656;2022-12-11T02:49:00;31.10;;;15.40;;
75851;SDS011;64500;52.632;20.656;2022-12-11T02:51:33;29.10;;;14.50;;
75851;SDS011;64500;52.632;20.656;2022-12-11T02:54:05;28.50;;;14.30;;
75851;SDS011;64500;52.632;20.656;2022-12-11T02:56:42;29.10;;;14.40;;
75851;SDS011;64500;52.632;20.656;2022-12-11T02:59:14;30.10;;;14.70;;
75851;SDS011;64500;52.632;20.656;2022-12-11T03:01:45;29.60;;;13.90;;
75851;SDS011;64500;52.632;20.656;2022-12-11T03:04:13;28.90;;;14.20;;
75851;SDS011;64500;52.632;20.656;2022-12-11T03:06:41;27.70;;;13.80;;
75851;SDS011;64500;52.632;20.656;2022-12-11T03:09:13;26.50;;;14.20;;
75851;SDS011;64500;52.632;20.656;2022-12-11T03:11:41;28.50;;;14.20;;
75851;SDS011;64500;52.632;20.656;2022-12-11T03:14:08;27.60;;;14.30;;
75851;SDS011;64500;52.632;20.656;2022-12-11T03:16:36;28.50;;;14.10;;
75851;SDS011;64500;52.632;20.656;2022-12-11T03:19:24;28.20;;;14.10;;
75851;SDS011;64500;52.632;20.656;2022-12-11T03:25:03;28.30;;;14.00;;
75851;SDS011;64500;52.632;20.656;2022-12-11T03:27:47;27.90;;;13.70;;
75851;SDS011;64500;52.632;20.656;2022-12-11T03:30:23;29.00;;;14.20;;
75851;SDS011;64500;52.632;20.656;2022-12-11T03:32:53;29.10;;;15.00;;
75851;SDS011;64500;52.632;20.656;2022-12-11T03:35:24;27.90;;;13.30;;
75851;SDS011;64500;52.632;20.656;2022-12-11T03:37:56;27.90;;;15.00;;
75851;SDS011;64500;52.632;20.656;2022-12-11T03:40:29;29.60;;;13.80;;
75851;SDS011;64500;52.632;20.656;2022-12-11T03:43:00;23.50;;;12.70;;
75851;SDS011;64500;52.632;20.656;2022-12-11T03:45:29;26.70;;;14.70;;
75851;SDS011;64500;52.632;20.656;2022-12-11T03:47:58;29.70;;;14.60;;
75851;SDS011;64500;52.632;20.656;2022-12-11T03:50:29;27.50;;;14.00;;
75851;SDS011;64500;52.632;20.656;2022-12-11T03:53:00;28.70;;;14.00;;
75851;SDS011;64500;52.632;20.656;2022-12-11T03:55:27;28.50;;;14.30;;
75851;SDS011;64500;52.632;20.656;2022-12-11T03:57:56;27.80;;;14.40;;
75851;SDS011;64500;52.632;20.656;2022-12-11T04:00:23;25.90;;;13.80;;
75851;SDS011;64500;52.632;20.656;2022-12-11T04:02:50;27.00;;;14.30;;
75851;SDS011;64500;52.632;20.656;2022-12-11T04:05:36;26.30;;;13.80;;
75851;SDS011;64500;52.632;20.656;2022-12-11T04:08:24;27.00;;;12.90;;
75851;SDS011;64500;52.632;20.656;2022-12-11T04:10:50;25.50;;;13.30;;
75851;SDS011;64500;52.632;20.656;2022-12-11T04:13:38;26.20;;;13.50;;
75851;SDS011;64500;52.632;20.656;2022-12-11T04:16:07;25.70;;;13.30;;
75851;SDS011;64500;52.632;20.656;2022-12-11T04:18:35;28.20;;;13.80;;
75851;SDS011;64500;52.632;20.656;2022-12-11T04:21:20;25.10;;;12.10;;
75851;SDS011;64500;52.632;20.656;2022-12-11T04:24:06;26.70;;;12.80;;
75851;SDS011;64500;52.632;20.656;2022-12-11T04:26:44;28.20;;;13.60;;
75851;SDS011;64500;52.632;20.656;2022-12-11T04:29:13;26.50;;;13.40;;
75851;SDS011;64500;52.632;20.656;2022-12-11T04:31:41;26.40;;;13.30;;
75851;SDS011;64500;52.632;20.656;2022-12-11T04:34:08;25.10;;;13.00;;
75851;SDS011;64500;52.632;20.656;2022-12-11T04:36:35;28.60;;;13.70;;
75851;SDS011;64500;52.632;20.656;2022-12-11T04:39:02;26.20;;;13.60;;
75851;SDS011;64500;52.632;20.656;2022-12-11T04:41:30;28.60;;;14.30;;
75851;SDS011;64500;52.632;20.656;2022-12-11T04:43:57;27.40;;;14.00;;
75851;SDS011;64500;52.632;20.656;2022-12-11T04:46:24;27.20;;;13.50;;
75851;SDS011;64500;52.632;20.656;2022-12-11T04:48:52;28.70;;;14.00;;
75851;SDS011;64500;52.632;20.656;2022-12-11T04:51:19;26.60;;;14.00;;
75851;SDS011;64500;52.632;20.656;2022-12-11T04:53:47;28.90;;;12.70;;
75851;SDS011;64500;52.632;20.656;2022-12-11T04:56:14;26.00;;;12.90;;
75851;SDS011;64500;52.632;20.656;2022-12-11T04:58:42;26.10;;;12.80;;
75851;SDS011;64500;52.632;20.656;2022-12-11T05:01:12;25.40;;;12.90;;
75851;SDS011;64500;52.632;20.656;2022-12-11T05:03:41;25.70;;;12.60;;
75851;SDS011;64500;52.632;20.656;2022-12-11T05:06:09;24.70;;;11.40;;
75851;SDS011;64500;52.632;20.656;2022-12-11T05:08:37;24.00;;;12.50;;
75851;SDS011;64500;52.632;20.656;2022-12-11T05:11:06;25.40;;;12.20;;
75851;SDS011;64500;52.632;20.656;2022-12-11T05:13:37;26.70;;;13.80;;
75851;SDS011;64500;52.632;20.656;2022-12-11T05:16:05;24.10;;;12.50;;
75851;SDS011;64500;52.632;20.656;2022-12-11T05:18:34;24.20;;;12.80;;
75851;SDS011;64500;52.632;20.656;2022-12-11T05:21:03;27.60;;;13.70;;
75851;SDS011;64500;52.632;20.656;2022-12-11T05:23:31;27.60;;;14.00;;
75851;SDS011;64500;52.632;20.656;2022-12-11T05:26:00;26.90;;;12.70;;
75851;SDS011;64500;52.632;20.656;2022-12-11T05:28:30;27.00;;;13.70;;
75851;SDS011;64500;52.632;20.656;2022-12-11T05:30:59;28.20;;;14.40;;
75851;SDS011;64500;52.632;20.656;2022-12-11T05:33:28;22.80;;;11.80;;
75851;SDS011;64500;52.632;20.656;2022-12-11T05:35:55;25.50;;;13.90;;
75851;SDS011;64500;52.632;20.656;2022-12-11T05:38:23;25.50;;;11.60;;
75851;SDS011;64500;52.632;20.656;2022-12-11T05:40:58;25.60;;;12.50;;
75851;SDS011;64500;52.632;20.656;2022-12-11T05:43:26;24.50;;;12.70;;
75851;SDS011;64500;52.632;20.656;2022-12-11T05:45:54;26.80;;;12.90;;
75851;SDS011;64500;52.632;20.656;2022-12-11T05:48:21;23.20;;;10.90;;
75851;SDS011;64500;52.632;20.656;2022-12-11T05:50:58;24.00;;;12.40;;
75851;SDS011;64500;52.632;20.656;2022-12-11T05:53:26;23.50;;;11.30;;
75851;SDS011;64500;52.632;20.656;2022-12-11T05:55:54;23.00;;;11.80;;
75851;SDS011;64500;52.632;20.656;2022-12-11T05:58:21;22.90;;;12.00;;
75851;SDS011;64500;52.632;20.656;2022-12-11T06:00:48;24.00;;;12.10;;
75851;SDS011;64500;52.632;20.656;2022-12-11T06:03:15;23.50;;;11.70;;
75851;SDS011;64500;52.632;20.656;2022-12-11T06:05:43;24.70;;;12.60;;
75851;SDS011;64500;52.632;20.656;2022-12-11T06:08:09;23.30;;;12.20;;
75851;SDS011;64500;52.632;20.656;2022-12-11T06:10:36;24.40;;;11.40;;
75851;SDS011;64500;52.632;20.656;2022-12-11T06:13:03;24.40;;;12.10;;
75851;SDS011;64500;52.632;20.656;2022-12-11T06:15:31;26.70;;;12.90;;
75851;SDS011;64500;52.632;20.656;2022-12-11T06:17:58;24.40;;;12.50;;
75851;SDS011;64500;52.632;20.656;2022-12-11T06:20:25;24.80;;;12.80;;
75851;SDS011;64500;52.632;20.656;2022-12-11T06:22:52;25.30;;;12.80;;
75851;SDS011;64500;52.632;20.656;2022-12-11T06:25:19;24.70;;;11.50;;
75851;SDS011;64500;52.632;20.656;2022-12-11T06:27:46;26.50;;;12.60;;
75851;SDS011;64500;52.632;20.656;2022-12-11T06:30:13;27.20;;;13.70;;
75851;SDS011;64500;52.632;20.656;2022-12-11T06:32:41;25.50;;;13.70;;
75851;SDS011;64500;52.632;20.656;2022-12-11T06:35:09;27.70;;;13.70;;
75851;SDS011;64500;52.632;20.656;2022-12-11T06:37:37;25.70;;;13.00;;
75851;SDS011;64500;52.632;20.656;2022-12-11T06:40:06;25.20;;;13.10;;
75851;SDS011;64500;52.632;20.656;2022-12-11T06:42:35;26.40;;;13.00;;
75851;SDS011;64500;52.632;20.656;2022-12-11T06:45:02;28.40;;;13.50;;
75851;SDS011;64500;52.632;20.656;2022-12-11T06:47:29;26.60;;;13.50;;
75851;SDS011;64500;52.632;20.656;2022-12-11T06:49:57;26.90;;;13.00;;
75851;SDS011;64500;52.632;20.656;2022-12-11T06:52:24;27.50;;;13.50;;
75851;SDS011;64500;52.632;20.656;2022-12-11T06:54:53;26.60;;;13.70;;
75851;SDS011;64500;52.632;20.656;2022-12-11T06:57:20;27.50;;;12.10;;
75851;SDS011;64500;52.632;20.656;2022-12-11T06:59:47;25.80;;;12.70;;
75851;SDS011;64500;52.632;20.656;2022-12-11T07:02:16;27.00;;;12.40;;
75851;SDS011;64500;52.632;20.656;2022-12-11T07:04:44;26.60;;;12.20;;
75851;SDS011;64500;52.632;20.656;2022-12-11T07:07:12;26.90;;;12.60;;
75851;SDS011;64500;52.632;20.656;2022-12-11T07:09:39;24.70;;;12.50;;
75851;SDS011;64500;52.632;20.656;2022-12-11T07:12:06;25.30;;;12.80;;
75851;SDS011;64500;52.632;20.656;2022-12-11T07:14:34;25.10;;;12.40;;
75851;SDS011;64500;52.632;20.656;2022-12-11T07:17:01;26.30;;;11.90;;
75851;SDS011;64500;52.632;20.656;2022-12-11T07:19:28;24.20;;;12.60;;
75851;SDS011;64500;52.632;20.656;2022-12-11T07:21:56;25.10;;;11.80;;
75851;SDS011;64500;52.632;20.656;2022-12-11T07:24:23;23.80;;;11.60;;
75851;SDS011;64500;52.632;20.656;2022-12-11T07:26:50;23.80;;;11.20;;
75851;SDS011;64500;52.632;20.656;2022-12-11T07:29:18;26.60;;;12.10;;
75851;SDS011;64500;52.632;20.656;2022-12-11T07:31:45;25.00;;;13.00;;
75851;SDS011;64500;52.632;20.656;2022-12-11T07:34:12;23.10;;;11.20;;
75851;SDS011;64500;52.632;20.656;2022-12-11T07:36:39;25.90;;;13.30;;
75851;SDS011;64500;52.632;20.656;2022-12-11T07:39:09;26.30;;;12.40;;
75851;SDS011;64500;52.632;20.656;2022-12-11T07:41:37;26.50;;;13.00;;
75851;SDS011;64500;52.632;20.656;2022-12-11T07:44:04;25.00;;;12.70;;
75851;SDS011;64500;52.632;20.656;2022-12-11T07:46:32;29.20;;;13.20;;
75851;SDS011;64500;52.632;20.656;2022-12-11T07:49:00;24.40;;;11.50;;
75851;SDS011;64500;52.632;20.656;2022-12-11T07:51:31;23.50;;;11.80;;
75851;SDS011;64500;52.632;20.656;2022-12-11T07:54:10;21.60;;;11.00;;
75851;SDS011;64500;52.632;20.656;2022-12-11T07:56:42;25.10;;;12.80;;
75851;SDS011;64500;52.632;20.656;2022-12-11T07:59:10;24.80;;;12.80;;
75851;SDS011;64500;52.632;20.656;2022-12-11T08:01:38;25.10;;;12.50;;
75851;SDS011;64500;52.632;20.656;2022-12-11T08:04:06;22.40;;;11.50;;
75851;SDS011;64500;52.632;20.656;2022-12-11T08:06:36;25.00;;;12.00;;
75851;SDS011;64500;52.632;20.656;2022-12-11T08:09:05;22.10;;;12.10;;
75851;SDS011;64500;52.632;20.656;2022-12-11T08:11:34;26.70;;;12.90;;
75851;SDS011;64500;52.632;20.656;2022-12-11T08:14:01;24.40;;;12.10;;
75851;SDS011;64500;52.632;20.656;2022-12-11T08:16:28;24.30;;;12.60;;
75851;SDS011;64500;52.632;20.656;2022-12-11T08:18:56;23.80;;;12.30;;
75851;SDS011;64500;52.632;20.656;2022-12-11T08:21:26;25.30;;;13.00;;
75851;SDS011;64500;52.632;20.656;2022-12-11T08:23:55;23.10;;;12.40;;
75851;SDS011;64500;52.632;20.656;2022-12-11T08:26:26;28.00;;;13.00;;
75851;SDS011;64500;52.632;20.656;2022-12-11T08:31:22;24.30;;;11.70;;
75851;SDS011;64500;52.632;20.656;2022-12-11T08:33:49;27.00;;;12.60;;
75851;SDS011;64500;52.632;20.656;2022-12-11T08:36:18;25.80;;;13.30;;
75851;SDS011;64500;52.632;20.656;2022-12-11T08:38:46;24.90;;;12.60;;
75851;SDS011;64500;52.632;20.656;2022-12-11T08:43:45;23.60;;;12.60;;
75851;SDS011;64500;52.632;20.656;2022-12-11T08:46:12;29.50;;;14.70;;
75851;SDS011;64500;52.632;20.656;2022-12-11T08:48:40;26.20;;;13.10;;
75851;SDS011;64500;52.632;20.656;2022-12-11T08:51:18;25.50;;;13.60;;
75851;SDS011;64500;52.632;20.656;2022-12-11T08:53:48;29.70;;;14.20;;
75851;SDS011;64500;52.632;20.656;2022-12-11T08:56:16;24.40;;;13.20;;
75851;SDS011;64500;52.632;20.656;2022-12-11T08:58:46;25.80;;;14.70;;
75851;SDS011;64500;52.632;20.656;2022-12-11T09:01:14;29.20;;;14.00;;
75851;SDS011;64500;52.632;20.656;2022-12-11T09:03:44;25.70;;;13.70;;
75851;SDS011;64500;52.632;20.656;2022-12-11T09:06:12;26.40;;;13.40;;
75851;SDS011;64500;52.632;20.656;2022-12-11T09:08:41;27.20;;;14.40;;
75851;SDS011;64500;52.632;20.656;2022-12-11T09:11:12;26.70;;;14.30;;
75851;SDS011;64500;52.632;20.656;2022-12-11T09:13:41;29.50;;;14.30;;
75851;SDS011;64500;52.632;20.656;2022-12-11T09:16:13;28.60;;;14.20;;
75851;SDS011;64500;52.632;20.656;2022-12-11T09:18:41;28.40;;;14.90;;
75851;SDS011;64500;52.632;20.656;2022-12-11T09:21:09;27.40;;;13.90;;
75851;SDS011;64500;52.632;20.656;2022-12-11T09:23:38;28.10;;;14.20;;
75851;SDS011;64500;52.632;20.656;2022-12-11T09:26:07;27.80;;;14.50;;
75851;SDS011;64500;52.632;20.656;2022-12-11T09:28:39;27.70;;;14.50;;
75851;SDS011;64500;52.632;20.656;2022-12-11T09:31:12;27.10;;;15.50;;
75851;SDS011;64500;52.632;20.656;2022-12-11T09:33:44;28.30;;;15.10;;
75851;SDS011;64500;52.632;20.656;2022-12-11T09:36:12;28.70;;;16.10;;
75851;SDS011;64500;52.632;20.656;2022-12-11T09:38:39;27.20;;;14.00;;
75851;SDS011;64500;52.632;20.656;2022-12-11T09:46:44;27.10;;;14.40;;
75851;SDS011;64500;52.632;20.656;2022-12-11T09:49:17;27.70;;;14.60;;
75851;SDS011;64500;52.632;20.656;2022-12-11T09:54:56;29.90;;;14.50;;
75851;SDS011;64500;52.632;20.656;2022-12-11T10:08:27;26.70;;;13.90;;
75851;SDS011;64500;52.632;20.656;2022-12-11T10:11:04;24.30;;;12.70;;
75851;SDS011;64500;52.632;20.656;2022-12-11T10:21:39;26.20;;;13.00;;
75851;SDS011;64500;52.632;20.656;2022-12-11T10:24:19;26.50;;;13.30;;
75851;SDS011;64500;52.632;20.656;2022-12-11T10:26:58;26.50;;;13.20;;
75851;SDS011;64500;52.632;20.656;2022-12-11T10:29:39;26.00;;;12.70;;
75851;SDS011;64500;52.632;20.656;2022-12-11T10:32:06;23.50;;;12.70;;
75851;SDS011;64500;52.632;20.656;2022-12-11T10:34:46;26.30;;;13.00;;
75851;SDS011;64500;52.632;20.656;2022-12-11T10:37:16;20.60;;;11.10;;
75851;SDS011;64500;52.632;20.656;2022-12-11T10:39:43;24.00;;;12.10;;
75851;SDS011;64500;52.632;20.656;2022-12-11T10:42:18;24.30;;;13.20;;
75851;SDS011;64500;52.632;20.656;2022-12-11T10:44:59;23.40;;;12.60;;
75851;SDS011;64500;52.632;20.656;2022-12-11T10:47:31;25.60;;;12.90;;
75851;SDS011;64500;52.632;20.656;2022-12-11T10:50:00;22.40;;;12.70;;
75851;SDS011;64500;52.632;20.656;2022-12-11T10:52:34;22.80;;;11.80;;
75851;SDS011;64500;52.632;20.656;2022-12-11T10:55:05;23.30;;;11.70;;
75851;SDS011;64500;52.632;20.656;2022-12-11T10:57:58;24.50;;;12.50;;
75851;SDS011;64500;52.632;20.656;2022-12-11T11:00:48;23.30;;;12.40;;
75851;SDS011;64500;52.632;20.656;2022-12-11T11:03:50;21.40;;;12.10;;
75851;SDS011;64500;52.632;20.656;2022-12-11T11:06:40;19.90;;;10.50;;
75851;SDS011;64500;52.632;20.656;2022-12-11T11:09:28;22.50;;;11.50;;
75851;SDS011;64500;52.632;20.656;2022-12-11T11:11:56;22.60;;;10.50;;
75851;SDS011;64500;52.632;20.656;2022-12-11T11:14:23;20.70;;;11.30;;
75851;SDS011;64500;52.632;20.656;2022-12-11T11:16:51;19.20;;;10.60;;
75851;SDS011;64500;52.632;20.656;2022-12-11T11:19:23;21.00;;;11.30;;
75851;SDS011;64500;52.632;20.656;2022-12-11T11:21:55;20.00;;;10.40;;
75851;SDS011;64500;52.632;20.656;2022-12-11T11:24:30;20.00;;;10.20;;
75851;SDS011;64500;52.632;20.656;2022-12-11T11:26:58;20.50;;;10.50;;
75851;SDS011;64500;52.632;20.656;2022-12-11T11:29:30;19.00;;;10.80;;
75851;SDS011;64500;52.632;20.656;2022-12-11T11:32:02;19.60;;;11.00;;
75851;SDS011;64500;52.632;20.656;2022-12-11T11:35:12;23.70;;;10.40;;
75851;SDS011;64500;52.632;20.656;2022-12-11T11:37:44;18.10;;;9.80;;
75851;SDS011;64500;52.632;20.656;2022-12-11T11:40:18;19.10;;;10.70;;
75851;SDS011;64500;52.632;20.656;2022-12-11T11:42:56;17.50;;;10.10;;
75851;SDS011;64500;52.632;20.656;2022-12-11T11:51:26;17.60;;;9.70;;
75851;SDS011;64500;52.632;20.656;2022-12-11T11:54:02;18.50;;;9.60;;
75851;SDS011;64500;52.632;20.656;2022-12-11T11:56:46;19.10;;;10.20;;
75851;SDS011;64500;52.632;20.656;2022-12-11T11:59:31;18.50;;;9.60;;
75851;SDS011;64500;52.632;20.656;2022-12-11T12:02:15;17.90;;;10.60;;
75851;SDS011;64500;52.632;20.656;2022-12-11T12:04:44;18.40;;;10.10;;
75851;SDS011;64500;52.632;20.656;2022-12-11T12:17:54;19.10;;;10.10;;
75851;SDS011;64500;52.632;20.656;2022-12-11T12:34:29;20.10;;;11.10;;
75851;SDS011;64500;52.632;20.656;2022-12-11T12:48:14;19.00;;;10.60;;
75851;SDS011;64500;52.632;20.656;2022-12-11T12:50:46;20.90;;;10.80;;
75851;SDS011;64500;52.632;20.656;2022-12-11T12:53:16;19.40;;;10.40;;
75851;SDS011;64500;52.632;20.656;2022-12-11T12:55:46;17.50;;;9.80;;
75851;SDS011;64500;52.632;20.656;2022-12-11T12:58:25;19.60;;;9.70;;
75851;SDS011;64500;52.632;20.656;2022-12-11T13:06:51;16.70;;;9.80;;
75851;SDS011;64500;52.632;20.656;2022-12-11T13:09:22;20.20;;;10.30;;
75851;SDS011;64500;52.632;20.656;2022-12-11T13:11:53;18.30;;;10.00;;
75851;SDS011;64500;52.632;20.656;2022-12-11T13:14:29;16.90;;;9.40;;
75851;SDS011;64500;52.632;20.656;2022-12-11T13:17:22;17.00;;;9.70;;
75851;SDS011;64500;52.632;20.656;2022-12-11T13:20:08;17.10;;;9.40;;
75851;SDS011;64500;52.632;20.656;2022-12-11T13:22:47;18.30;;;10.10;;
75851;SDS011;64500;52.632;20.656;2022-12-11T13:25:27;18.20;;;9.90;;
75851;SDS011;64500;52.632;20.656;2022-12-11T13:28:05;18.70;;;11.00;;
75851;SDS011;64500;52.632;20.656;2022-12-11T13:30:55;19.60;;;10.50;;
75851;SDS011;64500;52.632;20.656;2022-12-11T13:33:26;18.30;;;10.10;;
75851;SDS011;64500;52.632;20.656;2022-12-11T13:38:32;18.40;;;10.30;;
75851;SDS011;64500;52.632;20.656;2022-12-11T13:41:01;18.20;;;10.00;;
75851;SDS011;64500;52.632;20.656;2022-12-11T13:43:31;18.60;;;10.20;;
75851;SDS011;64500;52.632;20.656;2022-12-11T13:45:59;19.00;;;9.80;;
75851;SDS011;64500;52.632;20.656;2022-12-11T13:48:32;20.40;;;11.30;;
75851;SDS011;64500;52.632;20.656;2022-12-11T13:51:03;18.90;;;10.20;;
75851;SDS011;64500;52.632;20.656;2022-12-11T13:53:32;22.80;;;11.00;;
75851;SDS011;64500;52.632;20.656;2022-12-11T13:56:03;17.30;;;10.10;;
75851;SDS011;64500;52.632;20.656;2022-12-11T13:58:38;19.00;;;11.10;;
75851;SDS011;64500;52.632;20.656;2022-12-11T14:01:09;19.00;;;10.30;;
75851;SDS011;64500;52.632;20.656;2022-12-11T14:03:38;18.70;;;10.10;;
75851;SDS011;64500;52.632;20.656;2022-12-11T14:06:10;18.80;;;10.70;;
75851;SDS011;64500;52.632;20.656;2022-12-11T14:08:39;19.20;;;10.30;;
75851;SDS011;64500;52.632;20.656;2022-12-11T14:11:11;20.10;;;10.70;;
75851;SDS011;64500;52.632;20.656;2022-12-11T14:13:47;19.30;;;10.50;;
75851;SDS011;64500;52.632;20.656;2022-12-11T14:16:19;18.50;;;10.10;;
75851;SDS011;64500;52.632;20.656;2022-12-11T14:18:49;18.70;;;10.10;;
75851;SDS011;64500;52.632;20.656;2022-12-11T14:21:20;19.20;;;10.50;;
75851;SDS011;64500;52.632;20.656;2022-12-11T14:24:09;19.50;;;10.70;;
75851;SDS011;64500;52.632;20.656;2022-12-11T14:26:40;20.00;;;10.80;;
75851;SDS011;64500;52.632;20.656;2022-12-11T14:29:23;17.90;;;10.50;;
75851;SDS011;64500;52.632;20.656;2022-12-11T14:31:50;18.90;;;10.40;;
75851;SDS011;64500;52.632;20.656;2022-12-11T14:34:35;22.00;;;11.30;;
75851;SDS011;64500;52.632;20.656;2022-12-11T14:37:13;19.10;;;10.60;;
75851;SDS011;64500;52.632;20.656;2022-12-11T14:42:22;18.60;;;10.40;;
75851;SDS011;64500;52.632;20.656;2022-12-11T14:44:56;18.50;;;10.00;;
75851;SDS011;64500;52.632;20.656;2022-12-11T14:47:38;19.30;;;10.20;;
75851;SDS011;64500;52.632;20.656;2022-12-11T14:50:22;18.20;;;9.80;;
75851;SDS011;64500;52.632;20.656;2022-12-11T14:53:08;19.80;;;10.40;;
75851;SDS011;64500;52.632;20.656;2022-12-11T14:55:40;20.60;;;10.40;;
75851;SDS011;64500;52.632;20.656;2022-12-11T15:00:59;20.20;;;11.20;;
75851;SDS011;64500;52.632;20.656;2022-12-11T15:03:31;20.00;;;10.30;;
75851;SDS011;64500;52.632;20.656;2022-12-11T15:06:20;18.30;;;10.00;;
75851;SDS011;64500;52.632;20.656;2022-12-11T15:08:51;19.50;;;10.00;;
75851;SDS011;64500;52.632;20.656;2022-12-11T15:11:18;18.60;;;9.60;;
75851;SDS011;64500;52.632;20.656;2022-12-11T15:13:57;19.80;;;9.90;;
75851;SDS011;64500;52.632;20.656;2022-12-11T15:16:26;18.00;;;9.70;;
75851;SDS011;64500;52.632;20.656;2022-12-11T15:18:59;20.70;;;10.50;;
75851;SDS011;64500;52.632;20.656;2022-12-11T15:21:27;18.10;;;9.70;;
75851;SDS011;64500;52.632;20.656;2022-12-11T15:23:57;18.70;;;9.90;;
75851;SDS011;64500;52.632;20.656;2022-12-11T15:26:34;19.80;;;9.90;;
75851;SDS011;64500;52.632;20.656;2022-12-11T15:29:04;17.40;;;9.30;;
75851;SDS011;64500;52.632;20.656;2022-12-11T15:31:59;16.90;;;9.30;;
75851;SDS011;64500;52.632;20.656;2022-12-11T15:34:34;18.20;;;9.40;;
75851;SDS011;64500;52.632;20.656;2022-12-11T15:37:28;17.00;;;8.50;;
75851;SDS011;64500;52.632;20.656;2022-12-11T15:39:59;19.30;;;10.60;;
75851;SDS011;64500;52.632;20.656;2022-12-11T15:42:36;18.40;;;9.00;;
75851;SDS011;64500;52.632;20.656;2022-12-11T15:45:08;18.50;;;9.60;;
75851;SDS011;64500;52.632;20.656;2022-12-11T15:47:42;18.00;;;8.80;;
75851;SDS011;64500;52.632;20.656;2022-12-11T15:50:17;19.20;;;9.70;;
75851;SDS011;64500;52.632;20.656;2022-12-11T15:52:49;18.50;;;9.00;;
75851;SDS011;64500;52.632;20.656;2022-12-11T15:55:18;17.30;;;9.50;;
75851;SDS011;64500;52.632;20.656;2022-12-11T15:57:56;20.80;;;10.10;;
75851;SDS011;64500;52.632;20.656;2022-12-11T16:00:25;18.90;;;9.30;;
75851;SDS011;64500;52.632;20.656;2022-12-11T16:02:56;20.20;;;9.70;;
75851;SDS011;64500;52.632;20.656;2022-12-11T16:05:25;17.60;;;8.60;;
75851;SDS011;64500;52.632;20.656;2022-12-11T16:07:52;19.20;;;10.00;;
75851;SDS011;64500;52.632;20.656;2022-12-11T16:10:25;17.40;;;9.20;;
75851;SDS011;64500;52.632;20.656;2022-12-11T16:12:52;16.70;;;9.20;;
75851;SDS011;64500;52.632;20.656;2022-12-11T16:15:25;18.10;;;8.50;;
75851;SDS011;64500;52.632;20.656;2022-12-11T16:17:59;19.40;;;10.20;;
75851;SDS011;64500;52.632;20.656;2022-12-11T16:20:27;26.10;;;12.50;;